Боухантеры.ру

Информация о пользователе

Привет, Гость! Войдите или зарегистрируйтесь.


Вы здесь » Боухантеры.ру » Снаряжение боухантера


Снаряжение боухантера

Тем 241 страница 263 из 263

Тема Ответов Просмотров Последнее сообщение
241 Как не мерзнуть на дереве???  Тот Самый Олег
49 377 2020-01-20 11:58:32  Юджин
242 Наконечник Бишоп  Тот Самый Олег
2 67 2020-01-20 03:22:57  Тот Самый Олег
41 506 2020-01-17 23:42:20  РобинГад
9 161 2020-01-16 22:54:36  Юджин
245 Сброс  exc3lent
18 198 2020-01-14 08:57:49  Вован
6 144 2020-01-12 20:13:44  Тот Самый Олег
247 АТА шоу 2020  Александр Курашёв
15 192 2020-01-12 08:46:48  Черкасов
12 165 2020-01-11 08:45:15  iBolit66
249 Broadhead tuning  Тот Самый Олег
14 289 2020-01-10 00:20:07  Bows
250 Перчатки Sitka Ascent Glove - мой опыт  Александр Курашёв
3 65 2020-01-07 00:47:27  Pavel
3 106 2019-12-31 17:13:50  Юджин
252 Про АТА арбалета  Владимир
13 152 2019-12-29 10:28:55  Владимир
2 107 2019-12-27 23:26:46  Bows
1 51 2019-12-27 21:56:10  Александр Курашёв
255 Valkyrie наконечник валькирия  Тот Самый Олег
6 159 2019-12-25 17:04:56  Тот Самый Олег
15 936 2019-12-25 03:29:13  Тот Самый Олег
257 RMSG CUTTHROAT BROADHEAD  Тот Самый Олег
9 153 2019-12-24 23:00:04  Тот Самый Олег
258 Rage Hypodermic  Тот Самый Олег
1 55 2019-12-24 19:01:38  Foxshooter
259 German Kinetics  Тот Самый Олег
3 159 2019-12-24 16:33:33  Юджин
260 Модный вискербискет  Тот Самый Олег
2 87 2019-12-23 05:16:53  Тот Самый Олег
2 54 2019-12-23 01:18:48  Александр Курашёв
262 Опрос: Что бы вы хотели увидеть на АТА Шоу 2020?  Александр Курашёв
4 110 2019-12-22 12:44:30  Sanarcher
3 195 2019-12-20 23:07:42  ОлегычЪ

Вы здесь » Боухантеры.ру » Снаряжение боухантера